createdAt,value
2019-05-17T00:01:27.714Z,23.4
2019-05-17T00:11:28.025Z,26.4
2019-05-17T00:21:28.286Z,23.7
2019-05-17T00:31:26.994Z,27.7
2019-05-17T00:41:27.596Z,31.1
2019-05-17T00:51:29.000Z,31.8
2019-05-17T01:01:28.066Z,34.5
2019-05-17T01:11:27.717Z,36.2
2019-05-17T01:21:28.956Z,51.4
2019-05-17T01:31:27.264Z,59.0
2019-05-17T01:41:28.447Z,52.2
2019-05-17T01:51:29.328Z,61.9
2019-05-17T02:01:28.320Z,66.5
2019-05-17T02:11:27.626Z,77.3
2019-05-17T02:21:28.169Z,84.2
2019-05-17T02:31:27.147Z,84.6
2019-05-17T02:41:26.811Z,82.5
2019-05-17T02:51:26.664Z,81.0
2019-05-17T03:01:27.281Z,72.5
2019-05-17T03:11:28.134Z,79.7
2019-05-17T03:21:27.015Z,79.9
2019-05-17T03:31:35.814Z,76.5
2019-05-17T03:41:33.720Z,79.1
2019-05-17T03:51:26.641Z,78.4
2019-05-17T04:01:28.059Z,68.0
2019-05-17T04:11:36.327Z,81.3
2019-05-17T04:21:26.752Z,77.8
2019-05-17T04:31:34.597Z,80.1
2019-05-17T04:41:50.112Z,89.4
2019-05-17T04:51:27.393Z,81.8
2019-05-17T05:01:32.743Z,90.4
2019-05-17T05:11:28.527Z,97.6
2019-05-17T05:21:26.389Z,96.3
2019-05-17T05:31:26.340Z,101.1
2019-05-17T05:41:28.235Z,93.0
2019-05-17T05:51:25.310Z,99.1
2019-05-17T06:01:27.278Z,88.4
2019-05-17T06:11:27.316Z,89.8
2019-05-17T06:21:28.213Z,94.2
2019-05-17T06:31:25.226Z,83.6
2019-05-17T06:41:28.000Z,86.4
2019-05-17T06:51:27.113Z,78.2
2019-05-17T07:01:28.763Z,75.0
2019-05-17T07:11:31.049Z,63.9
2019-05-17T07:21:29.558Z,59.8
2019-05-17T07:31:29.613Z,53.0
2019-05-17T07:41:27.155Z,48.8
2019-05-17T07:51:26.850Z,49.7
2019-05-17T08:01:25.838Z,47.4
2019-05-17T08:11:26.482Z,42.5
2019-05-17T08:21:27.295Z,32.3
2019-05-17T08:31:26.893Z,39.1
2019-05-17T08:41:26.700Z,33.1
2019-05-17T08:51:30.290Z,27.8
2019-05-17T09:01:26.368Z,32.8
2019-05-17T09:11:25.644Z,34.5
2019-05-17T09:21:26.717Z,34.2
2019-05-17T09:31:29.465Z,29.9
2019-05-17T09:41:26.607Z,32.4
2019-05-17T09:51:27.444Z,27.8
2019-05-17T10:01:25.442Z,26.8
2019-05-17T10:11:27.962Z,29.6
2019-05-17T10:21:26.529Z,27.0
2019-05-17T10:31:25.733Z,32.8
2019-05-17T10:41:27.178Z,22.8
2019-05-17T10:51:25.864Z,39.3
2019-05-17T11:01:26.335Z,39.1
2019-05-17T11:11:27.605Z,40.7
2019-05-17T11:21:26.051Z,40.5
2019-05-17T11:31:26.321Z,29.9
2019-05-17T11:41:27.423Z,23.4
2019-05-17T11:51:28.158Z,22.2
2019-05-17T12:01:26.377Z,25.1
2019-05-17T12:11:26.653Z,24.1
2019-05-17T12:21:26.779Z,20.6
2019-05-17T12:31:25.553Z,19.2
2019-05-17T12:41:26.309Z,21.8
2019-05-17T12:51:26.044Z,29.3
2019-05-17T13:01:25.997Z,32.6
2019-05-17T13:11:25.873Z,22.7
2019-05-17T13:21:26.543Z,22.5
2019-05-17T13:31:27.945Z,17.4
2019-05-17T13:41:27.381Z,18.4
2019-05-17T13:51:25.869Z,19.2
2019-05-17T14:01:25.536Z,19.7
2019-05-17T14:11:26.242Z,18.6
2019-05-17T14:21:26.342Z,19.2
2019-05-17T14:31:26.325Z,14.6
2019-05-17T14:41:26.020Z,17.0
2019-05-17T14:51:26.448Z,10.6
2019-05-17T15:01:26.738Z,8.6
2019-05-17T15:11:27.526Z,7.0
2019-05-17T15:21:25.401Z,6.0
2019-05-17T15:31:26.889Z,5.8
2019-05-17T15:41:25.936Z,4.9
2019-05-17T15:51:26.810Z,5.9
2019-05-17T16:01:26.854Z,9.1
2019-05-17T16:11:27.259Z,8.4
2019-05-17T16:21:27.417Z,6.7
2019-05-17T16:31:27.008Z,7.2
2019-05-17T16:41:28.487Z,8.9
2019-05-17T16:51:27.311Z,8.9
2019-05-17T17:01:27.180Z,8.7
2019-05-17T17:11:27.875Z,9.4
2019-05-17T17:21:26.207Z,11.3
2019-05-17T17:31:26.527Z,11.4
2019-05-17T17:41:27.430Z,9.7
2019-05-17T17:51:31.643Z,9.3
2019-05-17T18:01:27.424Z,11.8
2019-05-17T18:11:26.416Z,13.5
2019-05-17T18:21:32.042Z,11.3
2019-05-17T18:31:26.569Z,11.2
2019-05-17T18:41:27.997Z,10.9
2019-05-17T18:51:25.806Z,12.6
2019-05-17T19:01:25.513Z,11.9
2019-05-17T19:11:27.573Z,14.8
2019-05-17T19:21:25.360Z,19.3
2019-05-17T19:31:27.060Z,20.5
2019-05-17T19:41:27.289Z,19.4
2019-05-17T19:51:27.569Z,19.4
2019-05-17T20:01:26.066Z,20.7
2019-05-17T20:11:35.242Z,13.4
2019-05-17T20:21:27.144Z,14.4
2019-05-17T20:31:27.152Z,15.3
2019-05-17T20:41:27.043Z,15.2
2019-05-17T20:51:25.762Z,16.8
2019-05-17T21:01:26.500Z,16.7
2019-05-17T21:11:27.628Z,15.3
2019-05-17T21:21:26.772Z,15.9
2019-05-17T21:31:27.060Z,15.7
2019-05-17T21:41:25.834Z,18.3
2019-05-17T21:51:31.945Z,15.9
2019-05-17T22:01:26.979Z,18.8
2019-05-17T22:11:26.561Z,20.9
2019-05-17T22:21:28.386Z,17.1
2019-05-17T22:31:26.854Z,16.2
2019-05-17T22:41:27.747Z,19.7
2019-05-17T22:51:28.696Z,24.7
2019-05-17T23:01:29.155Z,22.6
2019-05-17T23:11:27.008Z,22.9
2019-05-17T23:21:27.532Z,23.2
2019-05-17T23:31:26.116Z,27.4
2019-05-17T23:41:27.135Z,26.1
2019-05-17T23:51:27.072Z,23.9
